Time;durP1;ratioP1;P1;durP2;ratioP2;P2;SDS_P1;SDS_P2;PMS_P1;PMS_P2;Temp;Humidity;BMP_temperature;BMP_pressure;BME280_temperature;BME280_humidity;BME280_pressure;Samples;Min_cycle;Max_cycle;Signal;HPM_P1;HPM_P2
2022/09/27 00:00:57;;;;;;;;;11.33;11.00;;;;;22.03;56.18;99501.16;110436;1265;12894;-60
2022/09/27 00:03:32;;;;;;;;;10.33;10.00;;;;;22.04;56.07;99498.64;110448;1264;13138;-58
2022/09/27 00:06:00;;;;;;;;;10.00;9.00;;;;;22.06;56.03;99501.16;110462;1264;14152;-61
2022/09/27 00:08:27;;;;;;;;;9.33;9.00;;;;;22.04;56.08;99496.92;110433;1264;14746;-59
2022/09/27 00:10:55;;;;;;;;;8.33;7.00;;;;;22.03;56.15;99491.05;110470;1262;13866;-59
2022/09/27 00:13:22;;;;;;;;;7.67;7.00;;;;;22.03;56.02;99490.45;110354;1264;14251;-57
2022/09/27 00:15:50;;;;;;;;;8.33;7.67;;;;;22.03;55.95;99489.03;110357;1264;13092;-58
2022/09/27 00:18:17;;;;;;;;;10.00;7.00;;;;;22.02;56.05;99485.47;110363;1264;14294;-60
2022/09/27 00:20:45;;;;;;;;;7.00;7.00;;;;;22.02;56.05;99484.97;110450;1264;13057;-57
2022/09/27 00:23:12;;;;;;;;;9.00;9.00;;;;;22.04;55.85;99488.52;110406;1264;13059;-59
2022/09/27 00:25:40;;;;;;;;;6.67;6.00;;;;;22.02;55.97;99488.03;110442;1264;13211;-60
2022/09/27 00:28:08;;;;;;;;;10.00;10.00;;;;;22.01;56.01;99491.30;110467;1264;13543;-58
2022/09/27 00:30:35;;;;;;;;;7.00;7.00;;;;;22.02;56.00;99491.13;110504;1265;13203;-61
2022/09/27 00:33:03;;;;;;;;;7.00;7.00;;;;;22.02;55.87;99488.29;110435;1264;14214;-58
2022/09/27 00:35:30;;;;;;;;;7.00;7.00;;;;;22.02;55.75;99489.33;110427;1264;14447;-58
2022/09/27 00:37:58;;;;;;;;;9.00;9.00;;;;;22.02;55.87;99487.36;110484;1264;14257;-59
2022/09/27 00:40:25;;;;;;;;;11.00;10.67;;;;;22.01;55.78;99485.61;110527;1264;14322;-59
2022/09/27 00:42:52;;;;;;;;;10.00;10.00;;;;;22.02;55.79;99483.00;110490;1264;12761;-59
2022/09/27 00:45:20;;;;;;;;;9.00;9.00;;;;;22.02;55.71;99484.46;110374;1264;14512;-60
2022/09/27 00:47:47;;;;;;;;;12.00;12.00;;;;;22.02;55.67;99481.48;110456;1264;14395;-61
2022/09/27 00:50:15;;;;;;;;;6.00;6.00;;;;;22.02;55.70;99474.93;110454;1265;13597;-59
2022/09/27 00:52:42;;;;;;;;;7.00;7.00;;;;;22.03;55.54;99473.80;110426;1263;14021;-61
2022/09/27 00:55:10;;;;;;;;;6.00;6.00;;;;;22.01;55.42;99467.59;110432;1264;14707;-59
2022/09/27 00:57:37;;;;;;;;;6.00;6.00;;;;;22.01;55.58;99465.95;110467;1264;13583;-59
2022/09/27 01:00:05;;;;;;;;;7.00;7.00;;;;;22.01;55.61;99466.00;110448;1264;14326;-58
2022/09/27 01:02:32;;;;;;;;;7.67;6.33;;;;;22.00;55.52;99458.29;110435;1264;14044;-59
2022/09/27 01:04:59;;;;;;;;;13.00;11.00;;;;;22.02;55.54;99456.48;110439;1264;13722;-59
2022/09/27 01:07:27;;;;;;;;;9.00;9.00;;;;;22.01;55.48;99452.91;110453;1264;14283;-60
2022/09/27 01:09:55;;;;;;;;;7.00;7.00;;;;;22.02;55.39;99445.23;110480;1264;13131;-59
2022/09/27 01:12:22;;;;;;;;;11.67;11.00;;;;;22.01;55.45;99443.25;110458;1264;14237;-60
2022/09/27 01:14:49;;;;;;;;;8.33;7.00;;;;;22.02;55.36;99444.80;110441;1263;13254;-60
2022/09/27 01:17:17;;;;;;;;;12.33;11.00;;;;;22.03;55.32;99447.56;110337;1264;14647;-59
2022/09/27 01:19:44;;;;;;;;;10.00;10.00;;;;;22.03;55.17;99439.59;110431;1264;14351;-60
2022/09/27 01:22:12;;;;;;;;;7.00;6.00;;;;;22.01;55.14;99431.96;110271;1264;14793;-59
2022/09/27 01:24:39;;;;;;;;;14.00;12.00;;;;;22.02;55.30;99431.75;110303;1264;13208;-58
2022/09/27 01:27:07;;;;;;;;;10.00;9.00;;;;;22.01;55.19;99427.42;110484;1264;14333;-59
2022/09/27 01:29:35;;;;;;;;;10.00;10.00;;;;;22.01;55.20;99419.95;110432;1264;13751;-60
2022/09/27 01:32:02;;;;;;;;;6.00;6.00;;;;;22.01;55.16;99414.33;110467;1264;14637;-60
2022/09/27 01:34:29;;;;;;;;;13.33;13.00;;;;;22.00;55.08;99409.64;110446;1264;14366;-60
2022/09/27 01:36:57;;;;;;;;;9.00;7.00;;;;;22.02;55.04;99414.79;110503;1264;13125;-60
2022/09/27 01:39:25;;;;;;;;;9.00;9.00;;;;;22.00;55.20;99408.70;110452;1262;14481;-58
2022/09/27 01:41:52;;;;;;;;;5.00;5.00;;;;;22.01;55.15;99409.71;110444;1264;14322;-61
2022/09/27 01:44:19;;;;;;;;;10.67;10.67;;;;;21.99;55.21;99405.14;110446;1264;14240;-60
2022/09/27 01:46:47;;;;;;;;;7.00;7.00;;;;;22.00;55.12;99410.10;110455;1264;13080;-59
2022/09/27 01:49:15;;;;;;;;;6.33;6.00;;;;;22.01;55.19;99411.69;110398;1264;14118;-59
2022/09/27 01:51:43;;;;;;;;;9.00;7.00;;;;;22.00;55.14;99411.61;110399;1264;16418;-58
2022/09/27 01:54:10;;;;;;;;;10.00;10.00;;;;;22.01;55.14;99409.52;110290;1264;14377;-57
2022/09/27 01:56:38;;;;;;;;;7.00;7.00;;;;;22.00;55.10;99404.00;110406;1264;13691;-59
2022/09/27 01:59:05;;;;;;;;;5.50;5.00;;;;;22.00;55.16;99399.94;110412;1263;14776;-60
2022/09/27 02:01:33;;;;;;;;;9.00;9.00;;;;;22.01;55.21;99397.67;110434;1264;14495;-59
2022/09/27 02:04:00;;;;;;;;;6.33;6.00;;;;;22.00;55.17;99393.42;110573;1264;12716;-60
2022/09/27 02:06:28;;;;;;;;;5.33;5.33;;;;;22.00;55.25;99391.59;110552;1264;14417;-60
2022/09/27 02:08:55;;;;;;;;;6.33;6.33;;;;;21.99;55.34;99389.36;110493;1264;13922;-60
2022/09/27 02:11:23;;;;;;;;;7.00;7.00;;;;;22.00;55.33;99384.66;110358;1264;14441;-60
2022/09/27 02:13:50;;;;;;;;;6.00;6.00;;;;;22.01;55.37;99383.27;110465;1264;14544;-58
2022/09/27 02:16:18;;;;;;;;;6.33;6.00;;;;;21.99;55.50;99380.09;110446;1265;13660;-59
2022/09/27 02:18:45;;;;;;;;;6.00;6.00;;;;;22.00;55.44;99377.90;110503;1264;12906;-59
2022/09/27 02:21:13;;;;;;;;;7.00;6.67;;;;;22.00;55.43;99375.96;110411;1264;18490;-58
2022/09/27 02:23:40;;;;;;;;;6.33;6.33;;;;;22.01;55.47;99386.13;110289;1264;13529;-57
2022/09/27 02:26:08;;;;;;;;;6.33;6.33;;;;;22.02;55.50;99393.09;110448;1265;14884;-57
2022/09/27 02:28:35;;;;;;;;;6.00;6.00;;;;;22.00;55.59;99389.73;110303;1265;14729;-61
2022/09/27 02:31:03;;;;;;;;;6.00;6.00;;;;;22.00;55.60;99389.98;110497;1264;12719;-60
2022/09/27 02:33:31;;;;;;;;;7.00;6.00;;;;;22.00;55.61;99383.73;110495;1264;12956;-57
2022/09/27 02:35:58;;;;;;;;;6.00;5.50;;;;;22.00;55.58;99384.48;110391;1265;13132;-59
2022/09/27 02:38:26;;;;;;;;;6.00;6.00;;;;;22.01;55.50;99391.69;110351;1264;14388;-61
2022/09/27 02:40:53;;;;;;;;;6.00;6.00;;;;;22.00;55.53;99388.44;110362;1265;13782;-60
2022/09/27 02:43:21;;;;;;;;;6.00;6.00;;;;;22.02;55.51;99394.94;110418;1264;14364;-61
2022/09/27 02:45:48;;;;;;;;;10.00;10.00;;;;;22.00;55.47;99393.92;110450;1264;18187;-59
2022/09/27 02:48:15;;;;;;;;;11.67;11.00;;;;;21.99;55.45;99385.59;110374;1265;13711;-60
2022/09/27 02:50:43;;;;;;;;;8.33;8.33;;;;;22.00;55.48;99382.38;110396;1265;13097;-58
2022/09/27 02:53:10;;;;;;;;;5.00;5.00;;;;;22.00;55.43;99387.05;110387;1264;14344;-60
2022/09/27 02:55:38;;;;;;;;;9.67;8.33;;;;;21.98;55.47;99382.44;110412;1264;13658;-59
2022/09/27 02:58:05;;;;;;;;;5.67;5.00;;;;;21.99;55.46;99382.44;110515;1264;13018;-58
2022/09/27 03:00:33;;;;;;;;;9.00;9.00;;;;;21.99;55.43;99377.60;110378;1264;15742;-59
2022/09/27 03:03:00;;;;;;;;;5.00;5.00;;;;;21.99;55.52;99374.67;110414;1265;12278;-58
2022/09/27 03:05:29;;;;;;;;;7.00;6.00;;;;;21.99;55.52;99376.22;110461;1264;12903;-60
2022/09/27 03:07:56;;;;;;;;;3.00;3.00;;;;;21.99;55.47;99374.12;110547;1264;13085;-59
2022/09/27 03:10:24;;;;;;;;;5.00;4.33;;;;;21.99;55.48;99375.81;110447;1264;13740;-60
2022/09/27 03:12:52;;;;;;;;;7.00;6.00;;;;;21.98;55.48;99370.02;110470;1264;13079;-60
2022/09/27 03:15:19;;;;;;;;;4.33;4.33;;;;;21.98;55.57;99368.80;110414;1264;14537;-61
2022/09/27 03:17:47;;;;;;;;;5.33;5.00;;;;;21.98;55.54;99361.45;110419;1264;12791;-59
2022/09/27 03:20:14;;;;;;;;;6.00;6.00;;;;;21.99;55.51;99358.46;110439;1264;13014;-60
2022/09/27 03:22:42;;;;;;;;;4.33;4.33;;;;;21.99;55.60;99354.65;110443;1265;13034;-60
2022/09/27 03:25:09;;;;;;;;;11.00;11.00;;;;;21.99;55.54;99354.27;110443;1264;12950;-60
2022/09/27 03:27:37;;;;;;;;;6.00;6.00;;;;;22.00;55.52;99352.16;110477;1264;13074;-60
2022/09/27 03:30:05;;;;;;;;;3.00;3.00;;;;;21.99;55.48;99346.30;110420;1264;12837;-59
2022/09/27 03:32:32;;;;;;;;;3.67;3.67;;;;;21.99;55.56;99344.66;110416;1264;13627;-61
2022/09/27 03:35:00;;;;;;;;;5.00;5.00;;;;;21.99;55.50;99337.73;110403;1264;13221;-55
2022/09/27 03:37:28;;;;;;;;;6.00;6.00;;;;;21.99;55.52;99339.91;110409;1264;13370;-59
2022/09/27 03:39:55;;;;;;;;;6.00;6.00;;;;;21.98;55.55;99337.32;110457;1265;13204;-59
2022/09/27 03:42:23;;;;;;;;;5.00;5.00;;;;;21.97;55.50;99337.04;110361;1264;12974;-59
2022/09/27 03:44:51;;;;;;;;;3.00;3.00;;;;;21.99;55.58;99336.14;110431;1264;13236;-61
2022/09/27 03:47:18;;;;;;;;;6.00;5.00;;;;;21.99;55.48;99333.20;110457;1264;12973;-58
2022/09/27 03:49:46;;;;;;;;;9.00;7.67;;;;;21.98;55.47;99324.23;110502;1264;13114;-60
2022/09/27 03:52:13;;;;;;;;;6.00;6.00;;;;;21.98;55.43;99322.00;110362;1264;12586;-56
2022/09/27 03:54:41;;;;;;;;;5.00;5.00;;;;;21.98;55.43;99318.60;110498;1265;13218;-58
2022/09/27 03:57:09;;;;;;;;;9.00;7.00;;;;;21.97;55.39;99313.40;110393;1264;13267;-57
2022/09/27 03:59:36;;;;;;;;;7.00;7.00;;;;;21.97;55.43;99317.22;110454;1264;13263;-58
2022/09/27 04:02:04;;;;;;;;;3.00;3.00;;;;;21.98;55.43;99325.06;110444;1264;13200;-61
2022/09/27 04:04:31;;;;;;;;;9.50;9.50;;;;;21.98;55.36;99330.40;110340;1265;12838;-60
2022/09/27 04:06:59;;;;;;;;;5.00;5.00;;;;;21.99;55.40;99328.09;110461;1264;13016;-57
2022/09/27 04:09:26;;;;;;;;;4.33;4.33;;;;;21.98;55.46;99323.35;110425;1264;12590;-59
2022/09/27 04:11:54;;;;;;;;;6.00;6.00;;;;;21.97;55.44;99317.77;110385;1264;13259;-59
2022/09/27 04:14:21;;;;;;;;;6.00;6.00;;;;;21.98;55.40;99315.66;110280;1264;13008;-58
2022/09/27 04:16:49;;;;;;;;;5.00;5.00;;;;;21.98;55.40;99310.80;110480;1264;12951;-60
2022/09/27 04:19:16;;;;;;;;;7.50;6.50;;;;;21.98;55.35;99308.79;110502;1265;12760;-59
2022/09/27 04:21:44;;;;;;;;;3.00;3.00;;;;;21.97;55.36;99305.23;110490;1264;13259;-59
2022/09/27 04:24:11;;;;;;;;;5.00;5.00;;;;;21.98;55.38;99305.88;110487;1264;13108;-56
2022/09/27 04:26:39;;;;;;;;;3.00;3.00;;;;;21.98;55.30;99309.45;110530;1262;12612;-58
2022/09/27 04:29:08;;;;;;;;;7.00;6.00;;;;;22.00;55.26;99307.98;110483;1262;13531;-59
2022/09/27 04:31:36;;;;;;;;;6.00;6.00;;;;;21.99;55.33;99305.91;110348;1264;12986;-57
2022/09/27 04:34:04;;;;;;;;;3.00;3.00;;;;;21.98;55.28;99308.35;110434;1265;10521;-61
2022/09/27 04:36:32;;;;;;;;;6.33;6.00;;;;;21.98;55.24;99306.05;110377;1264;13097;-58
2022/09/27 04:38:59;;;;;;;;;5.00;3.67;;;;;21.98;55.30;99306.94;110438;1264;13295;-57
2022/09/27 04:41:27;;;;;;;;;7.00;6.67;;;;;21.98;55.29;99307.86;110438;1265;16336;-60
2022/09/27 04:43:54;;;;;;;;;7.00;7.00;;;;;21.98;55.23;99305.14;110452;1264;13576;-60
2022/09/27 04:46:21;;;;;;;;;3.00;3.00;;;;;21.98;55.26;99303.78;110458;1264;12338;-59
2022/09/27 04:48:49;;;;;;;;;5.67;5.00;;;;;21.99;55.25;99300.80;110496;1264;12724;-59
2022/09/27 04:51:16;;;;;;;;;5.33;5.00;;;;;21.99;55.17;99301.52;110392;1264;12993;-58
2022/09/27 04:53:44;;;;;;;;;5.67;5.00;;;;;21.99;55.18;99300.80;110346;1264;13187;-60
2022/09/27 04:56:11;;;;;;;;;7.00;7.00;;;;;21.99;55.20;99294.59;110393;1262;13046;-57
2022/09/27 04:58:39;;;;;;;;;6.00;6.00;;;;;21.99;55.20;99291.52;110440;1264;12877;-59
2022/09/27 05:01:06;;;;;;;;;6.33;5.33;;;;;22.02;55.16;99292.05;110444;1264;13138;-59
2022/09/27 05:03:33;;;;;;;;;7.00;7.00;;;;;22.05;55.34;99285.83;110426;1264;12888;-60
2022/09/27 05:06:01;;;;;;;;;4.33;4.33;;;;;22.06;55.39;99282.67;110450;1264;13001;-60
2022/09/27 05:08:29;;;;;;;;;5.00;3.67;;;;;22.05;55.40;99281.25;110433;1264;13981;-57
2022/09/27 05:10:57;;;;;;;;;10.67;10.33;;;;;22.06;55.43;99279.19;110454;1265;14045;-59
2022/09/27 05:13:24;;;;;;;;;9.67;8.33;;;;;22.06;55.45;99280.91;110473;1263;14051;-58
2022/09/27 05:15:52;;;;;;;;;6.67;5.67;;;;;22.06;55.17;99274.27;110456;1264;13178;-58
2022/09/27 05:18:20;;;;;;;;;5.00;3.67;;;;;22.07;55.20;99268.56;110468;1262;16770;-57
2022/09/27 05:20:47;;;;;;;;;7.00;7.00;;;;;22.08;55.21;99274.92;110453;1264;13352;-60
2022/09/27 05:23:15;;;;;;;;;6.33;6.33;;;;;22.08;55.28;99274.86;110417;1264;13218;-59
2022/09/27 05:25:42;;;;;;;;;9.33;8.67;;;;;22.08;55.09;99278.59;110371;1264;13668;-58
2022/09/27 05:28:10;;;;;;;;;5.00;5.00;;;;;22.09;55.15;99277.87;110382;1264;13075;-57
2022/09/27 05:30:38;;;;;;;;;6.00;5.00;;;;;22.09;55.30;99274.98;110276;1263;13105;-59
2022/09/27 05:33:05;;;;;;;;;10.33;10.00;;;;;22.08;55.50;99272.34;110203;1262;13692;-59
2022/09/27 05:35:34;;;;;;;;;6.33;6.33;;;;;22.06;55.54;99267.44;110360;1262;13899;-60
2022/09/27 05:38:02;;;;;;;;;6.00;6.00;;;;;22.10;55.56;99270.61;110334;1263;13090;-58
2022/09/27 05:40:29;;;;;;;;;9.00;9.00;;;;;22.11;55.61;99263.39;110390;1264;11970;-58
2022/09/27 05:42:57;;;;;;;;;18.33;16.33;;;;;22.13;55.58;99264.94;110459;1264;13182;-56
2022/09/27 05:45:24;;;;;;;;;46.67;41.33;;;;;22.15;55.88;99262.15;110439;1264;13100;-58
2022/09/27 05:47:51;;;;;;;;;248.00;220.00;;;;;22.18;56.06;99263.60;110423;1264;13273;-60
2022/09/27 05:50:19;;;;;;;;;238.50;205.00;;;;;22.20;56.46;99266.95;110353;1264;13491;-58
2022/09/27 05:52:47;;;;;;;;;136.25;119.25;;;;;22.18;56.70;99261.42;110320;1264;12766;-58
2022/09/27 05:55:14;;;;;;;;;94.00;76.50;;;;;22.16;56.88;99258.95;110440;1265;12731;-58
2022/09/27 05:57:42;;;;;;;;;76.00;61.33;;;;;22.16;56.80;99255.64;110392;1264;10427;-56
2022/09/27 06:00:09;;;;;;;;;73.50;54.50;;;;;22.17;56.78;99255.38;110411;1264;12459;-56
2022/09/27 06:02:38;;;;;;;;;66.33;51.00;;;;;22.14;56.77;99256.88;110467;1264;12735;-58
2022/09/27 06:05:06;;;;;;;;;57.33;45.67;;;;;22.12;56.59;99260.70;110373;1264;13942;-57
2022/09/27 06:07:33;;;;;;;;;50.00;42.33;;;;;22.12;56.39;99261.09;110362;1264;13204;-59
2022/09/27 06:10:00;;;;;;;;;40.67;36.67;;;;;22.12;55.99;99266.15;110467;1264;13177;-58
2022/09/27 06:12:28;;;;;;;;;42.33;37.67;;;;;22.07;56.10;99263.73;110400;1264;13956;-57
2022/09/27 06:14:55;;;;;;;;;40.33;35.67;;;;;22.05;55.77;99269.34;110425;1264;13057;-56
2022/09/27 06:17:23;;;;;;;;;34.67;32.00;;;;;22.03;55.58;99260.57;110388;1264;13108;-55
2022/09/27 06:19:51;;;;;;;;;30.50;29.00;;;;;22.01;55.27;99253.80;110443;1264;13374;-57
2022/09/27 06:22:18;;;;;;;;;27.00;24.00;;;;;21.97;54.79;99250.76;110436;1264;13113;-58
2022/09/27 06:24:45;;;;;;;;;23.33;23.00;;;;;21.93;54.47;99244.61;110448;1264;13211;-56
2022/09/27 06:27:13;;;;;;;;;25.67;23.00;;;;;21.90;54.30;99246.48;110311;1262;17319;-58
2022/09/27 06:29:40;;;;;;;;;23.33;22.33;;;;;21.90;54.03;99252.48;110414;1263;13095;-57
2022/09/27 06:32:09;;;;;;;;;25.67;23.00;;;;;21.75;53.17;99261.39;110340;1264;13098;-58
2022/09/27 06:34:37;;;;;;;;;26.67;22.67;;;;;21.34;52.81;99264.48;110402;1263;13627;-59
2022/09/27 06:37:04;;;;;;;;;22.67;21.33;;;;;21.22;52.60;99265.27;110429;1264;13208;-57
2022/09/27 06:39:32;;;;;;;;;25.67;23.00;;;;;21.04;52.26;99267.21;110367;1265;13195;-56
2022/09/27 06:41:59;;;;;;;;;22.33;19.33;;;;;20.71;52.23;99273.82;110325;1264;13471;-57
2022/09/27 06:44:26;;;;;;;;;25.33;25.00;;;;;20.59;52.65;99273.60;110344;1265;13074;-60
2022/09/27 06:46:54;;;;;;;;;35.00;32.67;;;;;20.91;52.09;99274.87;110392;1265;12438;-58
2022/09/27 06:49:24;;;;;;;;;22.67;21.33;;;;;21.12;51.68;99273.35;110467;1265;13110;-59
2022/09/27 06:51:51;;;;;;;;;25.00;22.00;;;;;21.14;51.50;99276.58;110427;1263;13107;-57
2022/09/27 06:54:19;;;;;;;;;26.00;25.00;;;;;21.18;51.36;99271.20;110448;1263;13265;-56
2022/09/27 06:56:46;;;;;;;;;25.00;24.50;;;;;21.25;51.22;99271.01;110355;1263;15193;-58
2022/09/27 07:01:59;;;;;;;;;20.00;18.00;;;;;21.33;51.17;99265.15;110262;1263;13258;-58
2022/09/27 07:04:26;;;;;;;;;19.33;17.67;;;;;21.45;51.13;99262.68;110443;1264;13142;-56
2022/09/27 07:06:54;;;;;;;;;16.33;15.00;;;;;21.58;51.22;99258.13;110493;1264;13772;-59
2022/09/27 07:09:21;;;;;;;;;15.67;14.67;;;;;21.70;51.44;99256.08;110398;1264;12587;-58
2022/09/27 07:11:49;;;;;;;;;14.00;11.33;;;;;21.79;51.63;99254.77;110424;1264;13645;-58
2022/09/27 07:14:16;;;;;;;;;18.33;14.67;;;;;21.86;51.72;99254.26;110239;1264;13405;-55
2022/09/27 07:16:43;;;;;;;;;13.00;11.00;;;;;21.86;51.76;99252.00;110280;1265;13978;-59
2022/09/27 07:19:13;;;;;;;;;13.00;11.00;;;;;21.86;51.86;99254.97;110428;1264;13243;-59
2022/09/27 07:21:40;;;;;;;;;9.50;9.00;;;;;21.87;52.01;99256.81;110416;1264;13288;-58
2022/09/27 07:24:08;;;;;;;;;11.00;10.00;;;;;21.88;52.11;99258.38;110332;1263;12781;-58
2022/09/27 07:26:35;;;;;;;;;9.00;7.00;;;;;21.91;52.22;99255.41;110419;1264;13305;-56
2022/09/27 07:29:03;;;;;;;;;11.67;9.67;;;;;21.92;52.31;99257.08;110420;1263;13291;-62
2022/09/27 07:31:30;;;;;;;;;10.00;9.67;;;;;21.91;52.42;99257.55;110430;1262;12829;-56
2022/09/27 07:33:58;;;;;;;;;9.33;7.67;;;;;21.93;52.46;99254.51;110416;1264;13186;-59
2022/09/27 07:36:25;;;;;;;;;8.33;6.67;;;;;21.94;52.51;99257.52;110197;1264;313035;-59
2022/09/27 07:38:53;;;;;;;;;9.00;9.00;;;;;21.98;52.59;99254.82;110442;1264;12062;-58
2022/09/27 07:41:20;;;;;;;;;9.00;7.00;;;;;22.00;52.79;99255.73;110507;1264;13204;-58
2022/09/27 07:43:47;;;;;;;;;9.00;7.00;;;;;22.03;52.91;99256.86;110432;1262;13195;-60
2022/09/27 07:46:15;;;;;;;;;13.50;13.00;;;;;22.07;52.94;99259.41;110488;1264;13006;-58
2022/09/27 07:48:42;;;;;;;;;5.67;5.00;;;;;22.07;53.06;99261.01;110399;1264;14412;-59
2022/09/27 07:51:10;;;;;;;;;10.00;10.00;;;;;22.06;53.14;99263.08;110417;1264;14406;-58
2022/09/27 07:53:39;;;;;;;;;7.00;7.00;;;;;22.04;53.23;99262.52;110406;1263;13206;-59
2022/09/27 07:56:07;;;;;;;;;9.33;9.00;;;;;22.03;53.39;99265.11;110386;1264;14821;-58
2022/09/27 07:58:34;;;;;;;;;5.00;5.00;;;;;22.00;53.38;99264.08;110343;1262;14683;-60
2022/09/27 08:01:02;;;;;;;;;9.00;9.00;;;;;21.98;53.43;99272.95;110418;1265;12975;-61
2022/09/27 08:03:30;;;;;;;;;9.67;9.00;;;;;22.00;53.41;99268.60;110380;1263;13970;-57
2022/09/27 08:05:57;;;;;;;;;5.67;5.67;;;;;22.02;53.47;99266.59;110432;1263;14465;-60
2022/09/27 08:08:25;;;;;;;;;6.00;6.00;;;;;22.07;53.52;99271.37;110420;1262;14177;-60
2022/09/27 08:10:52;;;;;;;;;9.00;9.00;;;;;22.12;53.62;99274.17;110408;1264;14257;-60
2022/09/27 08:13:20;;;;;;;;;9.33;9.33;;;;;22.29;53.71;99274.22;110531;1265;12618;-61
2022/09/27 08:15:51;;;;;;;;;12.00;11.00;;;;;22.36;53.65;99276.39;110410;1264;13146;-60
2022/09/27 08:18:20;;;;;;;;;9.00;9.00;;;;;22.18;53.66;99279.27;110399;1264;13748;-60
2022/09/27 08:20:48;;;;;;;;;17.67;14.67;;;;;21.96;53.33;99277.91;110406;1264;14298;-59
2022/09/27 08:23:15;;;;;;;;;15.00;13.67;;;;;21.87;53.41;99281.83;110411;1264;13630;-60
2022/09/27 08:25:43;;;;;;;;;14.67;14.00;;;;;21.83;53.38;99283.48;110412;1264;13180;-60
2022/09/27 08:28:10;;;;;;;;;11.67;11.67;;;;;21.78;53.54;99286.75;110464;1264;13223;-59
2022/09/27 08:30:38;;;;;;;;;15.00;14.00;;;;;21.75;53.63;99286.48;110357;1264;13623;-60
2022/09/27 08:33:05;;;;;;;;;19.00;19.00;;;;;21.67;53.39;99280.56;110243;1263;13845;-57
2022/09/27 08:35:32;;;;;;;;;11.67;11.00;;;;;21.49;53.06;99280.66;110406;1265;13694;-59
2022/09/27 08:38:00;;;;;;;;;19.00;17.33;;;;;21.33;53.02;99280.14;110341;1264;13717;-57
2022/09/27 08:40:27;;;;;;;;;14.33;14.00;;;;;21.29;52.94;99282.81;110359;1264;13506;-59
2022/09/27 08:42:55;;;;;;;;;16.33;16.33;;;;;21.20;52.69;99288.36;110420;1264;13202;-58
2022/09/27 08:45:22;;;;;;;;;24.50;18.00;;;;;21.19;52.51;99290.09;110295;1265;13882;-57
2022/09/27 08:47:50;;;;;;;;;25.00;18.33;;;;;21.24;52.29;99284.59;110294;1264;13220;-57
2022/09/27 08:50:17;;;;;;;;;20.67;20.33;;;;;21.24;52.16;99285.34;110282;1264;13228;-58
2022/09/27 08:52:45;;;;;;;;;20.67;18.00;;;;;21.22;52.08;99286.69;110274;1264;13233;-56
2022/09/27 08:55:12;;;;;;;;;18.67;18.00;;;;;21.17;52.07;99282.84;110420;1264;13549;-59
2022/09/27 08:57:40;;;;;;;;;20.00;19.67;;;;;21.16;52.00;99280.92;110319;1264;13115;-58
2022/09/27 09:00:07;;;;;;;;;15.33;15.00;;;;;21.01;52.09;99277.63;110328;1264;13135;-59
2022/09/27 09:02:35;;;;;;;;;17.00;14.50;;;;;21.01;52.05;99272.45;110366;1264;13941;-60
2022/09/27 09:05:02;;;;;;;;;15.00;14.67;;;;;21.12;52.08;99270.98;110382;1264;14569;-59
2022/09/27 09:07:31;;;;;;;;;17.00;17.00;;;;;21.33;51.86;99267.46;110431;1264;13028;-57
2022/09/27 09:09:58;;;;;;;;;14.33;14.33;;;;;21.48;51.66;99258.85;110437;1264;17069;-60
2022/09/27 09:15:10;;;;;;;;;17.00;14.67;;;;;21.68;51.59;99241.88;110411;1264;14445;-57
2022/09/27 09:17:38;;;;;;;;;17.33;17.00;;;;;21.73;51.69;99236.98;110434;1264;14532;-60
2022/09/27 09:20:05;;;;;;;;;21.50;19.50;;;;;21.66;51.81;99244.62;110352;1265;14474;-59
2022/09/27 09:22:33;;;;;;;;;21.00;18.00;;;;;21.37;52.12;99247.48;110425;1264;14506;-60
2022/09/27 09:25:00;;;;;;;;;18.00;17.00;;;;;21.11;52.44;99242.63;110454;1264;13069;-59
2022/09/27 09:27:28;;;;;;;;;22.33;21.33;;;;;20.99;52.70;99241.20;110362;1264;14368;-59
2022/09/27 09:29:55;;;;;;;;;19.33;18.67;;;;;21.07;52.56;99242.39;110347;1264;14479;-61
2022/09/27 09:32:23;;;;;;;;;18.00;17.00;;;;;21.18;52.24;99242.36;110366;1264;13312;-60
2022/09/27 09:34:50;;;;;;;;;21.67;20.67;;;;;21.25;51.92;99243.65;110401;1265;13910;-60
2022/09/27 09:37:17;;;;;;;;;24.50;23.00;;;;;21.27;51.61;99250.23;110365;1264;13297;-58
2022/09/27 09:39:45;;;;;;;;;20.67;19.00;;;;;21.26;51.28;99249.55;110376;1264;13516;-56
2022/09/27 09:42:12;;;;;;;;;22.00;21.00;;;;;21.22;51.27;99250.63;110280;1264;13778;-61
2022/09/27 09:44:40;;;;;;;;;23.00;22.00;;;;;21.18;51.16;99254.59;110308;1264;14420;-56
2022/09/27 09:47:07;;;;;;;;;20.67;20.67;;;;;21.24;51.11;99251.29;110318;1265;13451;-59
2022/09/27 09:49:35;;;;;;;;;17.50;15.00;;;;;21.17;50.94;99251.90;110451;1264;14313;-60
2022/09/27 09:52:02;;;;;;;;;26.33;26.00;;;;;21.12;50.83;99252.55;110403;1264;12970;-60
2022/09/27 09:54:30;;;;;;;;;21.00;21.00;;;;;21.09;50.98;99246.92;110382;1264;14966;-58
2022/09/27 09:56:58;;;;;;;;;18.00;18.00;;;;;21.09;50.82;99248.00;110396;1264;14598;-61
2022/09/27 09:59:25;;;;;;;;;18.00;15.67;;;;;21.23;50.75;99243.21;110352;1264;14782;-59
2022/09/27 10:01:54;;;;;;;;;18.00;17.00;;;;;21.45;50.60;99246.58;110314;1265;14297;-60
2022/09/27 10:04:22;;;;;;;;;17.00;15.00;;;;;21.59;50.49;99243.70;110448;1265;13140;-60
2022/09/27 10:06:49;;;;;;;;;13.33;13.00;;;;;21.68;50.39;99233.70;110370;1265;13135;-62
2022/09/27 10:09:17;;;;;;;;;12.67;12.67;;;;;21.71;50.46;99229.75;110298;1265;14181;-59
2022/09/27 10:11:44;;;;;;;;;13.50;11.00;;;;;21.74;50.55;99231.48;110336;1264;13513;-57
2022/09/27 10:14:12;;;;;;;;;13.33;13.33;;;;;21.77;50.68;99223.35;110097;1265;18721;-59
2022/09/27 10:16:41;;;;;;;;;13.00;11.00;;;;;21.79;50.82;99217.14;110191;1265;14676;-56
2022/09/27 10:19:08;;;;;;;;;13.00;11.00;;;;;21.78;50.97;99217.82;110480;1264;13090;-59
2022/09/27 10:21:36;;;;;;;;;13.00;13.00;;;;;21.77;51.04;99222.48;110301;1264;14730;-59
2022/09/27 10:24:03;;;;;;;;;9.00;8.33;;;;;21.80;51.25;99223.44;110348;1264;14282;-59
2022/09/27 10:26:31;;;;;;;;;11.00;9.00;;;;;21.80;51.32;99220.65;110292;1265;14015;-57
2022/09/27 10:28:58;;;;;;;;;18.67;18.00;;;;;21.73;51.37;99212.90;110221;1265;14627;-58
2022/09/27 10:31:26;;;;;;;;;16.33;14.00;;;;;21.30;51.41;99208.73;110367;1264;14423;-57
2022/09/27 10:33:53;;;;;;;;;22.00;19.67;;;;;21.21;51.65;99207.39;110422;1264;12986;-59
2022/09/27 10:36:21;;;;;;;;;21.50;19.00;;;;;21.13;51.45;99204.84;110328;1265;14700;-57
2022/09/27 10:38:48;;;;;;;;;17.00;17.00;;;;;21.03;51.37;99203.22;110328;1265;14582;-58
2022/09/27 10:41:16;;;;;;;;;23.00;22.00;;;;;21.08;51.30;99207.81;110398;1264;14485;-59
2022/09/27 10:43:43;;;;;;;;;22.00;21.00;;;;;21.09;51.00;99207.05;110339;1264;14606;-58
2022/09/27 10:46:11;;;;;;;;;19.00;17.00;;;;;21.08;50.79;99205.21;110434;1264;13150;-59
2022/09/27 10:48:38;;;;;;;;;22.33;21.00;;;;;21.11;50.80;99199.92;110394;1264;15117;-57
2022/09/27 10:51:06;;;;;;;;;21.00;20.00;;;;;21.13;50.74;99195.80;110361;1265;13872;-60
2022/09/27 10:53:33;;;;;;;;;20.33;18.33;;;;;21.09;50.74;99191.64;110431;1264;13584;-57
2022/09/27 10:56:00;;;;;;;;;18.67;17.67;;;;;21.18;50.63;99192.56;110327;1265;14253;-58
2022/09/27 10:58:28;;;;;;;;;19.67;18.67;;;;;21.22;50.52;99194.58;110372;1265;13247;-58
2022/09/27 11:00:55;;;;;;;;;15.00;15.00;;;;;20.90;50.77;99189.33;110449;1264;13276;-59
2022/09/27 11:03:24;;;;;;;;;25.00;20.00;;;;;20.93;50.91;99184.96;110247;1264;14447;-60
2022/09/27 11:05:53;;;;;;;;;20.00;16.00;;;;;20.95;50.84;99188.64;110323;1264;13278;-58
2022/09/27 11:08:22;;;;;;;;;21.00;18.00;;;;;20.97;50.83;99183.77;110277;1264;14160;-59
2022/09/27 11:10:50;;;;;;;;;21.33;18.67;;;;;20.97;50.77;99179.15;110418;1264;14160;-59
2022/09/27 11:13:18;;;;;;;;;16.00;16.00;;;;;20.96;50.94;99167.93;110493;1264;13438;-58
2022/09/27 11:15:45;;;;;;;;;20.67;18.67;;;;;21.05;50.84;99162.87;110293;1264;14690;-59
2022/09/27 11:18:13;;;;;;;;;18.00;17.67;;;;;21.02;50.87;99163.71;110306;1264;15207;-58
2022/09/27 11:20:40;;;;;;;;;20.00;17.00;;;;;20.90;51.21;99162.65;110353;1265;14188;-57
2022/09/27 11:23:07;;;;;;;;;17.67;17.33;;;;;20.94;51.20;99158.34;110443;1265;14976;-60